sensor_id;sensor_type;location;lat;lon;timestamp;P1;durP1;ratioP1;P2;durP2;ratioP2
70707;SDS011;58277;47.316;18.908;2023-02-28T00:02:00;14.32;;;6.15;;
70707;SDS011;58277;47.316;18.908;2023-02-28T00:04:23;14.32;;;6.15;;
70707;SDS011;58277;47.316;18.908;2023-02-28T00:06:46;15.30;;;5.65;;
70707;SDS011;58277;47.316;18.908;2023-02-28T00:09:08;15.20;;;6.30;;
70707;SDS011;58277;47.316;18.908;2023-02-28T00:11:31;14.55;;;6.43;;
70707;SDS011;58277;47.316;18.908;2023-02-28T00:13:54;16.45;;;6.40;;
70707;SDS011;58277;47.316;18.908;2023-02-28T00:16:17;15.32;;;6.22;;
70707;SDS011;58277;47.316;18.908;2023-02-28T00:18:42;16.65;;;6.55;;
70707;SDS011;58277;47.316;18.908;2023-02-28T00:21:05;16.20;;;6.50;;
70707;SDS011;58277;47.316;18.908;2023-02-28T00:23:28;19.60;;;6.88;;
70707;SDS011;58277;47.316;18.908;2023-02-28T00:25:51;20.63;;;7.18;;
70707;SDS011;58277;47.316;18.908;2023-02-28T00:28:14;17.77;;;7.53;;
70707;SDS011;58277;47.316;18.908;2023-02-28T00:30:37;17.23;;;6.85;;
70707;SDS011;58277;47.316;18.908;2023-02-28T00:32:59;18.53;;;7.07;;
70707;SDS011;58277;47.316;18.908;2023-02-28T00:35:22;16.77;;;6.75;;
70707;SDS011;58277;47.316;18.908;2023-02-28T00:37:45;16.67;;;6.43;;
70707;SDS011;58277;47.316;18.908;2023-02-28T00:40:08;16.23;;;6.90;;
70707;SDS011;58277;47.316;18.908;2023-02-28T00:42:35;16.73;;;6.85;;
70707;SDS011;58277;47.316;18.908;2023-02-28T00:44:58;15.83;;;6.77;;
70707;SDS011;58277;47.316;18.908;2023-02-28T00:47:21;15.75;;;6.45;;
70707;SDS011;58277;47.316;18.908;2023-02-28T00:49:44;15.00;;;6.70;;
70707;SDS011;58277;47.316;18.908;2023-02-28T00:52:07;15.05;;;6.88;;
70707;SDS011;58277;47.316;18.908;2023-02-28T00:54:30;14.48;;;6.53;;
70707;SDS011;58277;47.316;18.908;2023-02-28T00:56:52;14.33;;;6.77;;
70707;SDS011;58277;47.316;18.908;2023-02-28T00:59:17;18.38;;;7.03;;
70707;SDS011;58277;47.316;18.908;2023-02-28T01:01:40;17.52;;;6.65;;
70707;SDS011;58277;47.316;18.908;2023-02-28T01:04:03;17.15;;;7.00;;
70707;SDS011;58277;47.316;18.908;2023-02-28T01:06:27;17.85;;;7.45;;
70707;SDS011;58277;47.316;18.908;2023-02-28T01:08:49;18.10;;;7.07;;
70707;SDS011;58277;47.316;18.908;2023-02-28T01:11:14;17.45;;;7.38;;
70707;SDS011;58277;47.316;18.908;2023-02-28T01:13:38;17.88;;;7.35;;
70707;SDS011;58277;47.316;18.908;2023-02-28T01:16:01;18.00;;;7.32;;
70707;SDS011;58277;47.316;18.908;2023-02-28T01:18:24;19.55;;;8.07;;
70707;SDS011;58277;47.316;18.908;2023-02-28T01:20:47;18.97;;;7.83;;
70707;SDS011;58277;47.316;18.908;2023-02-28T01:23:11;21.83;;;8.30;;
70707;SDS011;58277;47.316;18.908;2023-02-28T01:25:34;18.38;;;7.38;;
70707;SDS011;58277;47.316;18.908;2023-02-28T01:27:59;19.35;;;7.93;;
70707;SDS011;58277;47.316;18.908;2023-02-28T01:30:22;20.83;;;7.60;;
70707;SDS011;58277;47.316;18.908;2023-02-28T01:32:44;20.47;;;8.17;;
70707;SDS011;58277;47.316;18.908;2023-02-28T01:35:07;20.25;;;7.65;;
70707;SDS011;58277;47.316;18.908;2023-02-28T01:37:30;23.40;;;8.30;;
70707;SDS011;58277;47.316;18.908;2023-02-28T01:39:54;20.02;;;7.80;;
70707;SDS011;58277;47.316;18.908;2023-02-28T01:42:16;19.70;;;8.07;;
70707;SDS011;58277;47.316;18.908;2023-02-28T01:44:56;18.27;;;7.47;;
70707;SDS011;58277;47.316;18.908;2023-02-28T01:47:20;21.17;;;7.72;;
70707;SDS011;58277;47.316;18.908;2023-02-28T01:49:44;19.52;;;7.93;;
70707;SDS011;58277;47.316;18.908;2023-02-28T01:52:07;24.00;;;8.27;;
70707;SDS011;58277;47.316;18.908;2023-02-28T01:54:37;19.35;;;7.85;;
70707;SDS011;58277;47.316;18.908;2023-02-28T01:57:07;19.33;;;7.80;;
70707;SDS011;58277;47.316;18.908;2023-02-28T01:59:42;21.08;;;7.93;;
70707;SDS011;58277;47.316;18.908;2023-02-28T02:02:11;20.90;;;8.00;;
70707;SDS011;58277;47.316;18.908;2023-02-28T02:04:39;19.55;;;7.32;;
70707;SDS011;58277;47.316;18.908;2023-02-28T02:07:08;20.60;;;7.95;;
70707;SDS011;58277;47.316;18.908;2023-02-28T02:09:32;16.97;;;7.67;;
70707;SDS011;58277;47.316;18.908;2023-02-28T02:11:55;19.52;;;7.85;;
70707;SDS011;58277;47.316;18.908;2023-02-28T02:17:40;18.88;;;7.00;;
70707;SDS011;58277;47.316;18.908;2023-02-28T02:28:11;19.67;;;7.68;;
70707;SDS011;58277;47.316;18.908;2023-02-28T02:36:05;18.47;;;7.50;;
70707;SDS011;58277;47.316;18.908;2023-02-28T02:38:40;19.55;;;8.00;;
70707;SDS011;58277;47.316;18.908;2023-02-28T02:46:11;16.45;;;6.93;;
70707;SDS011;58277;47.316;18.908;2023-02-28T02:48:40;18.90;;;7.27;;
70707;SDS011;58277;47.316;18.908;2023-02-28T02:51:10;19.58;;;7.53;;
70707;SDS011;58277;47.316;18.908;2023-02-28T02:53:47;18.38;;;6.88;;
70707;SDS011;58277;47.316;18.908;2023-02-28T02:56:14;16.02;;;6.97;;
70707;SDS011;58277;47.316;18.908;2023-02-28T02:58:41;16.25;;;6.65;;
70707;SDS011;58277;47.316;18.908;2023-02-28T03:01:05;17.30;;;7.03;;
70707;SDS011;58277;47.316;18.908;2023-02-28T03:03:29;16.73;;;7.22;;
70707;SDS011;58277;47.316;18.908;2023-02-28T03:05:57;17.05;;;7.13;;
70707;SDS011;58277;47.316;18.908;2023-02-28T03:08:22;18.08;;;7.28;;
70707;SDS011;58277;47.316;18.908;2023-02-28T03:10:46;16.90;;;7.25;;
70707;SDS011;58277;47.316;18.908;2023-02-28T03:13:19;17.10;;;7.37;;
70707;SDS011;58277;47.316;18.908;2023-02-28T03:23:56;17.77;;;7.50;;
70707;SDS011;58277;47.316;18.908;2023-02-28T03:26:45;16.77;;;6.90;;
70707;SDS011;58277;47.316;18.908;2023-02-28T03:29:50;18.02;;;7.20;;
70707;SDS011;58277;47.316;18.908;2023-02-28T03:32:24;17.80;;;6.88;;
70707;SDS011;58277;47.316;18.908;2023-02-28T03:35:02;17.10;;;7.25;;
70707;SDS011;58277;47.316;18.908;2023-02-28T03:37:35;20.88;;;7.65;;
70707;SDS011;58277;47.316;18.908;2023-02-28T03:40:10;20.67;;;7.80;;
70707;SDS011;58277;47.316;18.908;2023-02-28T03:42:37;18.08;;;7.63;;
70707;SDS011;58277;47.316;18.908;2023-02-28T03:45:05;20.15;;;7.90;;
70707;SDS011;58277;47.316;18.908;2023-02-28T03:47:53;16.73;;;6.80;;
70707;SDS011;58277;47.316;18.908;2023-02-28T03:50:23;20.75;;;7.80;;
70707;SDS011;58277;47.316;18.908;2023-02-28T03:53:00;17.07;;;6.67;;
70707;SDS011;58277;47.316;18.908;2023-02-28T03:55:28;15.63;;;7.18;;
70707;SDS011;58277;47.316;18.908;2023-02-28T03:57:58;16.98;;;7.47;;
70707;SDS011;58277;47.316;18.908;2023-02-28T04:02:58;21.88;;;7.97;;
70707;SDS011;58277;47.316;18.908;2023-02-28T04:05:21;17.77;;;6.73;;
70707;SDS011;58277;47.316;18.908;2023-02-28T04:07:44;17.27;;;7.53;;
70707;SDS011;58277;47.316;18.908;2023-02-28T04:10:08;20.30;;;7.47;;
70707;SDS011;58277;47.316;18.908;2023-02-28T04:12:33;18.65;;;7.25;;
70707;SDS011;58277;47.316;18.908;2023-02-28T04:14:55;22.15;;;8.25;;
70707;SDS011;58277;47.316;18.908;2023-02-28T04:17:18;19.57;;;7.20;;
70707;SDS011;58277;47.316;18.908;2023-02-28T04:19:41;18.58;;;7.15;;
70707;SDS011;58277;47.316;18.908;2023-02-28T04:22:04;21.23;;;7.40;;
70707;SDS011;58277;47.316;18.908;2023-02-28T04:24:27;18.27;;;7.68;;
70707;SDS011;58277;47.316;18.908;2023-02-28T04:26:51;16.17;;;7.07;;
70707;SDS011;58277;47.316;18.908;2023-02-28T04:29:19;18.30;;;7.47;;
70707;SDS011;58277;47.316;18.908;2023-02-28T04:31:46;18.27;;;6.85;;
70707;SDS011;58277;47.316;18.908;2023-02-28T04:34:09;16.88;;;7.35;;
70707;SDS011;58277;47.316;18.908;2023-02-28T04:36:32;16.80;;;6.28;;
70707;SDS011;58277;47.316;18.908;2023-02-28T04:38:54;17.50;;;7.00;;
70707;SDS011;58277;47.316;18.908;2023-02-28T04:41:17;18.80;;;6.93;;
70707;SDS011;58277;47.316;18.908;2023-02-28T04:43:40;19.05;;;6.65;;
70707;SDS011;58277;47.316;18.908;2023-02-28T04:46:04;14.98;;;6.35;;
70707;SDS011;58277;47.316;18.908;2023-02-28T04:48:28;17.02;;;7.68;;
70707;SDS011;58277;47.316;18.908;2023-02-28T04:50:52;15.38;;;6.43;;
70707;SDS011;58277;47.316;18.908;2023-02-28T04:53:14;15.40;;;6.10;;
70707;SDS011;58277;47.316;18.908;2023-02-28T04:55:37;13.95;;;6.22;;
70707;SDS011;58277;47.316;18.908;2023-02-28T04:58:02;15.68;;;6.43;;
70707;SDS011;58277;47.316;18.908;2023-02-28T05:00:25;15.10;;;5.88;;
70707;SDS011;58277;47.316;18.908;2023-02-28T05:02:47;14.55;;;6.28;;
70707;SDS011;58277;47.316;18.908;2023-02-28T05:05:10;13.97;;;6.03;;
70707;SDS011;58277;47.316;18.908;2023-02-28T05:07:34;12.30;;;5.35;;
70707;SDS011;58277;47.316;18.908;2023-02-28T05:09:57;16.77;;;6.00;;
70707;SDS011;58277;47.316;18.908;2023-02-28T05:12:19;12.52;;;5.68;;
70707;SDS011;58277;47.316;18.908;2023-02-28T05:14:42;13.55;;;6.18;;
70707;SDS011;58277;47.316;18.908;2023-02-28T05:17:06;14.83;;;6.00;;
70707;SDS011;58277;47.316;18.908;2023-02-28T05:19:29;14.48;;;5.40;;
70707;SDS011;58277;47.316;18.908;2023-02-28T05:21:53;14.40;;;5.50;;
70707;SDS011;58277;47.316;18.908;2023-02-28T05:24:17;13.43;;;5.47;;
70707;SDS011;58277;47.316;18.908;2023-02-28T05:26:45;12.40;;;5.55;;
70707;SDS011;58277;47.316;18.908;2023-02-28T05:29:08;14.33;;;5.60;;
70707;SDS011;58277;47.316;18.908;2023-02-28T05:31:32;14.43;;;5.18;;
70707;SDS011;58277;47.316;18.908;2023-02-28T05:33:55;14.65;;;5.78;;
70707;SDS011;58277;47.316;18.908;2023-02-28T05:36:17;11.43;;;5.20;;
70707;SDS011;58277;47.316;18.908;2023-02-28T05:38:40;14.40;;;6.82;;
70707;SDS011;58277;47.316;18.908;2023-02-28T05:41:06;12.67;;;5.07;;
70707;SDS011;58277;47.316;18.908;2023-02-28T05:43:33;11.73;;;5.32;;
70707;SDS011;58277;47.316;18.908;2023-02-28T05:45:56;12.93;;;5.22;;
70707;SDS011;58277;47.316;18.908;2023-02-28T05:48:19;10.80;;;4.95;;
70707;SDS011;58277;47.316;18.908;2023-02-28T05:50:41;11.23;;;5.22;;
70707;SDS011;58277;47.316;18.908;2023-02-28T05:53:07;11.17;;;4.47;;
70707;SDS011;58277;47.316;18.908;2023-02-28T05:55:29;10.90;;;4.88;;
70707;SDS011;58277;47.316;18.908;2023-02-28T05:57:54;12.55;;;4.88;;
70707;SDS011;58277;47.316;18.908;2023-02-28T06:00:18;10.80;;;5.32;;
70707;SDS011;58277;47.316;18.908;2023-02-28T06:02:41;12.90;;;6.00;;
70707;SDS011;58277;47.316;18.908;2023-02-28T06:05:04;14.43;;;5.90;;
70707;SDS011;58277;47.316;18.908;2023-02-28T06:07:27;12.85;;;6.25;;
70707;SDS011;58277;47.316;18.908;2023-02-28T06:09:50;12.15;;;5.32;;
70707;SDS011;58277;47.316;18.908;2023-02-28T06:12:13;13.07;;;4.38;;
70707;SDS011;58277;47.316;18.908;2023-02-28T06:14:36;13.43;;;5.03;;
70707;SDS011;58277;47.316;18.908;2023-02-28T06:16:59;12.47;;;5.30;;
70707;SDS011;58277;47.316;18.908;2023-02-28T06:19:22;11.35;;;4.85;;
70707;SDS011;58277;47.316;18.908;2023-02-28T06:21:48;14.27;;;5.53;;
70707;SDS011;58277;47.316;18.908;2023-02-28T06:24:15;11.18;;;4.93;;
70707;SDS011;58277;47.316;18.908;2023-02-28T06:26:37;12.88;;;5.18;;
70707;SDS011;58277;47.316;18.908;2023-02-28T06:29:00;11.73;;;5.13;;
70707;SDS011;58277;47.316;18.908;2023-02-28T06:31:23;15.95;;;6.68;;
70707;SDS011;58277;47.316;18.908;2023-02-28T06:33:48;19.25;;;6.78;;
70707;SDS011;58277;47.316;18.908;2023-02-28T06:36:11;16.67;;;7.30;;
70707;SDS011;58277;47.316;18.908;2023-02-28T06:38:36;20.58;;;7.13;;
70707;SDS011;58277;47.316;18.908;2023-02-28T06:40:59;20.03;;;7.43;;
70707;SDS011;58277;47.316;18.908;2023-02-28T06:43:23;13.15;;;5.78;;
70707;SDS011;58277;47.316;18.908;2023-02-28T06:45:47;18.17;;;6.78;;
70707;SDS011;58277;47.316;18.908;2023-02-28T06:48:09;19.00;;;7.20;;
70707;SDS011;58277;47.316;18.908;2023-02-28T06:50:32;33.05;;;12.10;;
70707;SDS011;58277;47.316;18.908;2023-02-28T06:52:55;18.63;;;6.43;;
70707;SDS011;58277;47.316;18.908;2023-02-28T06:55:18;18.80;;;7.13;;
70707;SDS011;58277;47.316;18.908;2023-02-28T06:57:41;19.50;;;7.72;;
70707;SDS011;58277;47.316;18.908;2023-02-28T07:00:06;18.10;;;7.45;;
70707;SDS011;58277;47.316;18.908;2023-02-28T07:02:30;13.98;;;6.40;;
70707;SDS011;58277;47.316;18.908;2023-02-28T07:04:53;15.10;;;6.77;;
70707;SDS011;58277;47.316;18.908;2023-02-28T07:07:16;17.23;;;7.40;;
70707;SDS011;58277;47.316;18.908;2023-02-28T07:09:40;15.45;;;6.28;;
70707;SDS011;58277;47.316;18.908;2023-02-28T07:12:03;16.73;;;6.30;;
70707;SDS011;58277;47.316;18.908;2023-02-28T07:14:25;15.80;;;6.63;;
70707;SDS011;58277;47.316;18.908;2023-02-28T07:16:48;17.20;;;8.30;;
70707;SDS011;58277;47.316;18.908;2023-02-28T07:19:12;17.85;;;6.60;;
70707;SDS011;58277;47.316;18.908;2023-02-28T07:21:35;14.00;;;6.50;;
70707;SDS011;58277;47.316;18.908;2023-02-28T07:23:58;14.82;;;6.28;;
70707;SDS011;58277;47.316;18.908;2023-02-28T07:26:21;13.15;;;6.45;;
70707;SDS011;58277;47.316;18.908;2023-02-28T07:28:44;15.77;;;6.60;;
70707;SDS011;58277;47.316;18.908;2023-02-28T07:31:08;15.57;;;7.15;;
70707;SDS011;58277;47.316;18.908;2023-02-28T07:33:32;13.57;;;6.50;;
70707;SDS011;58277;47.316;18.908;2023-02-28T07:36:13;15.07;;;6.75;;
70707;SDS011;58277;47.316;18.908;2023-02-28T07:38:37;14.93;;;6.57;;
70707;SDS011;58277;47.316;18.908;2023-02-28T07:41:01;14.27;;;6.60;;
70707;SDS011;58277;47.316;18.908;2023-02-28T07:43:26;15.82;;;7.63;;
70707;SDS011;58277;47.316;18.908;2023-02-28T07:45:49;16.77;;;6.70;;
70707;SDS011;58277;47.316;18.908;2023-02-28T07:48:12;15.90;;;6.32;;
70707;SDS011;58277;47.316;18.908;2023-02-28T07:50:35;13.70;;;5.72;;
70707;SDS011;58277;47.316;18.908;2023-02-28T07:52:58;12.40;;;6.03;;
70707;SDS011;58277;47.316;18.908;2023-02-28T07:55:21;16.23;;;6.50;;
70707;SDS011;58277;47.316;18.908;2023-02-28T07:57:44;15.57;;;7.10;;
70707;SDS011;58277;47.316;18.908;2023-02-28T08:00:08;14.73;;;6.68;;
70707;SDS011;58277;47.316;18.908;2023-02-28T08:02:35;17.63;;;6.80;;
70707;SDS011;58277;47.316;18.908;2023-02-28T08:04:59;14.00;;;6.70;;
70707;SDS011;58277;47.316;18.908;2023-02-28T08:10:26;13.05;;;6.32;;
70707;SDS011;58277;47.316;18.908;2023-02-28T08:12:49;13.05;;;6.00;;
70707;SDS011;58277;47.316;18.908;2023-02-28T08:15:12;14.32;;;6.20;;
70707;SDS011;58277;47.316;18.908;2023-02-28T08:17:34;14.03;;;5.47;;
70707;SDS011;58277;47.316;18.908;2023-02-28T08:19:58;14.23;;;6.18;;
70707;SDS011;58277;47.316;18.908;2023-02-28T08:22:21;13.38;;;6.00;;
70707;SDS011;58277;47.316;18.908;2023-02-28T08:24:45;13.88;;;5.70;;
70707;SDS011;58277;47.316;18.908;2023-02-28T08:27:09;12.93;;;5.88;;
70707;SDS011;58277;47.316;18.908;2023-02-28T08:29:32;13.87;;;5.90;;
70707;SDS011;58277;47.316;18.908;2023-02-28T08:31:54;12.40;;;6.05;;
70707;SDS011;58277;47.316;18.908;2023-02-28T08:34:18;16.00;;;6.38;;
70707;SDS011;58277;47.316;18.908;2023-02-28T08:36:40;13.50;;;6.18;;
70707;SDS011;58277;47.316;18.908;2023-02-28T08:39:05;12.52;;;5.20;;
70707;SDS011;58277;47.316;18.908;2023-02-28T08:41:28;11.40;;;4.87;;
70707;SDS011;58277;47.316;18.908;2023-02-28T08:43:51;12.32;;;5.32;;
70707;SDS011;58277;47.316;18.908;2023-02-28T08:46:15;12.52;;;5.82;;
70707;SDS011;58277;47.316;18.908;2023-02-28T08:48:39;15.38;;;5.32;;
70707;SDS011;58277;47.316;18.908;2023-02-28T08:51:04;11.80;;;5.75;;
70707;SDS011;58277;47.316;18.908;2023-02-28T08:53:32;12.70;;;5.43;;
70707;SDS011;58277;47.316;18.908;2023-02-28T08:56:04;10.75;;;5.43;;
70707;SDS011;58277;47.316;18.908;2023-02-28T08:58:32;12.05;;;5.47;;
70707;SDS011;58277;47.316;18.908;2023-02-28T09:00:56;12.05;;;5.53;;
70707;SDS011;58277;47.316;18.908;2023-02-28T09:03:21;12.10;;;5.50;;
70707;SDS011;58277;47.316;18.908;2023-02-28T09:05:53;13.53;;;5.77;;
70707;SDS011;58277;47.316;18.908;2023-02-28T09:08:20;11.27;;;4.70;;
70707;SDS011;58277;47.316;18.908;2023-02-28T09:10:43;13.10;;;5.75;;
70707;SDS011;58277;47.316;18.908;2023-02-28T09:13:06;12.80;;;5.40;;
70707;SDS011;58277;47.316;18.908;2023-02-28T09:15:29;11.48;;;5.95;;
70707;SDS011;58277;47.316;18.908;2023-02-28T09:17:51;15.50;;;6.40;;
70707;SDS011;58277;47.316;18.908;2023-02-28T09:20:15;13.52;;;5.53;;
70707;SDS011;58277;47.316;18.908;2023-02-28T09:22:38;14.35;;;5.82;;
70707;SDS011;58277;47.316;18.908;2023-02-28T09:25:01;12.40;;;5.70;;
70707;SDS011;58277;47.316;18.908;2023-02-28T09:27:24;13.27;;;6.05;;
70707;SDS011;58277;47.316;18.908;2023-02-28T09:29:47;14.87;;;6.17;;
70707;SDS011;58277;47.316;18.908;2023-02-28T09:32:10;12.90;;;6.13;;
70707;SDS011;58277;47.316;18.908;2023-02-28T09:34:33;12.63;;;5.95;;
70707;SDS011;58277;47.316;18.908;2023-02-28T09:36:56;13.32;;;5.97;;
70707;SDS011;58277;47.316;18.908;2023-02-28T09:39:22;15.48;;;5.90;;
70707;SDS011;58277;47.316;18.908;2023-02-28T09:41:48;14.30;;;6.27;;
70707;SDS011;58277;47.316;18.908;2023-02-28T09:47:00;11.48;;;5.72;;
70707;SDS011;58277;47.316;18.908;2023-02-28T09:49:36;16.80;;;5.85;;
70707;SDS011;58277;47.316;18.908;2023-02-28T09:54:33;15.30;;;7.00;;
70707;SDS011;58277;47.316;18.908;2023-02-28T10:05:20;14.57;;;6.28;;
70707;SDS011;58277;47.316;18.908;2023-02-28T10:08:01;12.97;;;6.20;;
70707;SDS011;58277;47.316;18.908;2023-02-28T10:13:26;10.85;;;5.00;;
70707;SDS011;58277;47.316;18.908;2023-02-28T10:15:58;13.63;;;4.93;;
70707;SDS011;58277;47.316;18.908;2023-02-28T10:18:31;13.80;;;5.55;;
70707;SDS011;58277;47.316;18.908;2023-02-28T10:21:30;16.00;;;5.70;;
70707;SDS011;58277;47.316;18.908;2023-02-28T10:27:01;14.60;;;5.72;;
70707;SDS011;58277;47.316;18.908;2023-02-28T10:29:35;14.65;;;5.88;;
70707;SDS011;58277;47.316;18.908;2023-02-28T10:31:59;11.75;;;4.60;;
70707;SDS011;58277;47.316;18.908;2023-02-28T10:34:25;12.80;;;6.00;;
70707;SDS011;58277;47.316;18.908;2023-02-28T10:36:47;15.95;;;6.28;;
70707;SDS011;58277;47.316;18.908;2023-02-28T10:41:59;12.18;;;5.28;;
70707;SDS011;58277;47.316;18.908;2023-02-28T10:44:23;17.90;;;5.60;;
70707;SDS011;58277;47.316;18.908;2023-02-28T10:46:46;12.73;;;5.70;;
70707;SDS011;58277;47.316;18.908;2023-02-28T10:49:17;14.65;;;5.82;;
70707;SDS011;58277;47.316;18.908;2023-02-28T10:51:43;11.90;;;5.70;;
70707;SDS011;58277;47.316;18.908;2023-02-28T10:54:16;11.77;;;5.50;;
70707;SDS011;58277;47.316;18.908;2023-02-28T10:56:42;13.10;;;5.80;;
70707;SDS011;58277;47.316;18.908;2023-02-28T11:06:42;12.57;;;5.78;;
70707;SDS011;58277;47.316;18.908;2023-02-28T11:09:06;12.75;;;5.90;;
70707;SDS011;58277;47.316;18.908;2023-02-28T11:11:51;11.23;;;5.40;;
70707;SDS011;58277;47.316;18.908;2023-02-28T11:14:22;11.48;;;5.13;;
70707;SDS011;58277;47.316;18.908;2023-02-28T11:16:47;13.82;;;5.95;;
70707;SDS011;58277;47.316;18.908;2023-02-28T11:19:35;11.90;;;5.60;;
70707;SDS011;58277;47.316;18.908;2023-02-28T11:22:01;14.00;;;5.93;;
70707;SDS011;58277;47.316;18.908;2023-02-28T11:24:36;12.63;;;6.00;;
70707;SDS011;58277;47.316;18.908;2023-02-28T11:27:04;14.55;;;6.40;;
70707;SDS011;58277;47.316;18.908;2023-02-28T11:29:27;12.70;;;6.68;;
70707;SDS011;58277;47.316;18.908;2023-02-28T11:34:26;11.07;;;5.55;;
70707;SDS011;58277;47.316;18.908;2023-02-28T11:36:50;14.20;;;6.03;;
70707;SDS011;58277;47.316;18.908;2023-02-28T11:39:20;11.98;;;6.25;;
70707;SDS011;58277;47.316;18.908;2023-02-28T11:52:40;14.57;;;6.28;;
70707;SDS011;58277;47.316;18.908;2023-02-28T12:06:15;13.45;;;6.07;;
70707;SDS011;58277;47.316;18.908;2023-02-28T12:11:17;11.95;;;5.85;;
70707;SDS011;58277;47.316;18.908;2023-02-28T12:19:48;13.05;;;5.70;;
70707;SDS011;58277;47.316;18.908;2023-02-28T12:22:32;12.13;;;5.28;;
70707;SDS011;58277;47.316;18.908;2023-02-28T12:27:30;12.48;;;5.40;;
70707;SDS011;58277;47.316;18.908;2023-02-28T12:30:13;13.13;;;5.43;;
70707;SDS011;58277;47.316;18.908;2023-02-28T12:32:39;11.43;;;5.30;;
70707;SDS011;58277;47.316;18.908;2023-02-28T12:35:11;13.38;;;5.55;;
70707;SDS011;58277;47.316;18.908;2023-02-28T12:37:55;15.25;;;5.55;;
70707;SDS011;58277;47.316;18.908;2023-02-28T12:40:33;12.63;;;5.85;;
70707;SDS011;58277;47.316;18.908;2023-02-28T12:43:08;12.37;;;5.40;;
70707;SDS011;58277;47.316;18.908;2023-02-28T12:48:13;12.73;;;5.57;;
70707;SDS011;58277;47.316;18.908;2023-02-28T12:50:38;13.05;;;6.10;;
70707;SDS011;58277;47.316;18.908;2023-02-28T12:53:10;15.15;;;6.07;;
70707;SDS011;58277;47.316;18.908;2023-02-28T12:55:40;12.37;;;5.90;;
70707;SDS011;58277;47.316;18.908;2023-02-28T12:58:12;16.48;;;6.30;;
70707;SDS011;58277;47.316;18.908;2023-02-28T13:00:37;14.23;;;6.10;;
70707;SDS011;58277;47.316;18.908;2023-02-28T13:03:27;16.92;;;6.35;;
70707;SDS011;58277;47.316;18.908;2023-02-28T13:06:41;14.65;;;5.90;;
70707;SDS011;58277;47.316;18.908;2023-02-28T13:11:41;12.32;;;5.60;;
70707;SDS011;58277;47.316;18.908;2023-02-28T13:16:56;14.50;;;5.43;;
70707;SDS011;58277;47.316;18.908;2023-02-28T13:19:20;14.77;;;6.32;;
70707;SDS011;58277;47.316;18.908;2023-02-28T13:21:45;12.57;;;5.43;;
70707;SDS011;58277;47.316;18.908;2023-02-28T13:24:12;11.27;;;5.03;;
70707;SDS011;58277;47.316;18.908;2023-02-28T13:29:34;14.30;;;5.85;;
70707;SDS011;58277;47.316;18.908;2023-02-28T13:34:38;12.53;;;5.80;;
70707;SDS011;58277;47.316;18.908;2023-02-28T13:39:50;12.23;;;5.43;;
70707;SDS011;58277;47.316;18.908;2023-02-28T13:45:29;11.80;;;4.95;;
70707;SDS011;58277;47.316;18.908;2023-02-28T13:47:45;12.93;;;5.33;;
70707;SDS011;58277;47.316;18.908;2023-02-28T13:52:51;10.98;;;5.15;;
70707;SDS011;58277;47.316;18.908;2023-02-28T14:05:29;12.23;;;5.70;;
70707;SDS011;58277;47.316;18.908;2023-02-28T14:07:58;13.18;;;5.40;;
70707;SDS011;58277;47.316;18.908;2023-02-28T14:10:30;13.52;;;6.03;;
70707;SDS011;58277;47.316;18.908;2023-02-28T14:13:00;13.80;;;6.10;;
70707;SDS011;58277;47.316;18.908;2023-02-28T14:20:58;18.23;;;7.43;;
70707;SDS011;58277;47.316;18.908;2023-02-28T14:23:49;11.77;;;5.15;;
70707;SDS011;58277;47.316;18.908;2023-02-28T14:34:26;11.13;;;4.40;;
70707;SDS011;58277;47.316;18.908;2023-02-28T14:37:02;11.85;;;5.20;;
70707;SDS011;58277;47.316;18.908;2023-02-28T14:39:25;11.60;;;5.13;;
70707;SDS011;58277;47.316;18.908;2023-02-28T14:41:53;13.10;;;5.15;;
70707;SDS011;58277;47.316;18.908;2023-02-28T14:46:43;12.43;;;5.28;;
70707;SDS011;58277;47.316;18.908;2023-02-28T14:49:12;14.30;;;6.47;;
70707;SDS011;58277;47.316;18.908;2023-02-28T14:51:39;16.53;;;6.90;;
70707;SDS011;58277;47.316;18.908;2023-02-28T14:54:02;18.25;;;7.07;;
70707;SDS011;58277;47.316;18.908;2023-02-28T14:56:28;16.40;;;6.70;;
70707;SDS011;58277;47.316;18.908;2023-02-28T14:58:56;14.35;;;6.38;;
70707;SDS011;58277;47.316;18.908;2023-02-28T15:01:21;15.00;;;6.70;;
70707;SDS011;58277;47.316;18.908;2023-02-28T15:03:45;14.67;;;6.37;;
70707;SDS011;58277;47.316;18.908;2023-02-28T15:06:13;16.17;;;6.65;;
70707;SDS011;58277;47.316;18.908;2023-02-28T15:08:40;14.13;;;6.50;;
70707;SDS011;58277;47.316;18.908;2023-02-28T15:11:13;13.90;;;6.57;;
70707;SDS011;58277;47.316;18.908;2023-02-28T15:13:39;14.73;;;6.18;;
70707;SDS011;58277;47.316;18.908;2023-02-28T15:19:13;15.55;;;6.40;;
70707;SDS011;58277;47.316;18.908;2023-02-28T15:21:43;16.30;;;6.55;;
70707;SDS011;58277;47.316;18.908;2023-02-28T15:24:13;14.52;;;6.75;;
70707;SDS011;58277;47.316;18.908;2023-02-28T15:26:46;14.43;;;6.13;;
70707;SDS011;58277;47.316;18.908;2023-02-28T15:29:13;15.10;;;6.67;;
70707;SDS011;58277;47.316;18.908;2023-02-28T15:31:43;16.55;;;6.40;;
70707;SDS011;58277;47.316;18.908;2023-02-28T15:34:20;15.27;;;6.43;;
70707;SDS011;58277;47.316;18.908;2023-02-28T15:36:58;15.05;;;6.80;;
70707;SDS011;58277;47.316;18.908;2023-02-28T15:39:23;18.88;;;7.28;;
70707;SDS011;58277;47.316;18.908;2023-02-28T15:41:51;14.67;;;6.27;;
70707;SDS011;58277;47.316;18.908;2023-02-28T15:44:27;15.70;;;6.65;;
70707;SDS011;58277;47.316;18.908;2023-02-28T15:47:15;15.18;;;6.45;;
70707;SDS011;58277;47.316;18.908;2023-02-28T15:49:45;17.55;;;7.15;;
70707;SDS011;58277;47.316;18.908;2023-02-28T15:52:15;15.07;;;6.57;;
70707;SDS011;58277;47.316;18.908;2023-02-28T15:54:40;17.33;;;7.27;;
70707;SDS011;58277;47.316;18.908;2023-02-28T15:57:05;17.40;;;7.43;;
70707;SDS011;58277;47.316;18.908;2023-02-28T15:59:30;15.20;;;6.43;;
70707;SDS011;58277;47.316;18.908;2023-02-28T16:02:13;17.63;;;7.05;;
70707;SDS011;58277;47.316;18.908;2023-02-28T16:04:55;14.85;;;6.72;;
70707;SDS011;58277;47.316;18.908;2023-02-28T16:07:22;13.80;;;6.23;;
70707;SDS011;58277;47.316;18.908;2023-02-28T16:09:49;14.15;;;6.57;;
70707;SDS011;58277;47.316;18.908;2023-02-28T16:12:12;17.55;;;6.85;;
70707;SDS011;58277;47.316;18.908;2023-02-28T16:14:36;14.20;;;6.43;;
70707;SDS011;58277;47.316;18.908;2023-02-28T16:17:05;13.68;;;6.30;;
70707;SDS011;58277;47.316;18.908;2023-02-28T16:19:33;17.57;;;7.07;;
70707;SDS011;58277;47.316;18.908;2023-02-28T16:21:56;17.27;;;7.25;;
70707;SDS011;58277;47.316;18.908;2023-02-28T16:24:19;17.23;;;6.60;;
70707;SDS011;58277;47.316;18.908;2023-02-28T16:26:42;15.50;;;6.78;;
70707;SDS011;58277;47.316;18.908;2023-02-28T16:29:13;17.80;;;7.13;;
70707;SDS011;58277;47.316;18.908;2023-02-28T16:31:43;17.03;;;7.10;;
70707;SDS011;58277;47.316;18.908;2023-02-28T16:34:06;18.73;;;7.88;;
70707;SDS011;58277;47.316;18.908;2023-02-28T16:36:29;16.58;;;7.18;;
70707;SDS011;58277;47.316;18.908;2023-02-28T16:38:52;19.55;;;7.13;;
70707;SDS011;58277;47.316;18.908;2023-02-28T16:41:24;18.00;;;7.28;;
70707;SDS011;58277;47.316;18.908;2023-02-28T16:43:51;19.73;;;7.97;;
70707;SDS011;58277;47.316;18.908;2023-02-28T16:46:16;19.23;;;8.27;;
70707;SDS011;58277;47.316;18.908;2023-02-28T16:48:39;21.40;;;7.95;;
70707;SDS011;58277;47.316;18.908;2023-02-28T16:51:02;19.25;;;7.97;;